createdAt,value
2023-01-05T00:01:36.514Z,0.70
2023-01-05T00:04:05.704Z,1.33
2023-01-05T00:06:34.212Z,0.73
2023-01-05T00:09:03.520Z,1.40
2023-01-05T00:11:48.675Z,1.40
2023-01-05T00:14:35.814Z,1.00
2023-01-05T00:17:22.043Z,0.60
2023-01-05T00:20:07.434Z,1.83
2023-01-05T00:22:40.386Z,0.53
2023-01-05T00:25:13.059Z,0.57
2023-01-05T00:27:42.167Z,0.77
2023-01-05T00:30:11.934Z,1.83
2023-01-05T00:32:41.602Z,0.60
2023-01-05T00:35:10.725Z,0.50
2023-01-05T00:37:39.386Z,0.67
2023-01-05T00:40:11.487Z,0.57
2023-01-05T00:42:39.531Z,0.83
2023-01-05T00:45:09.612Z,0.97
2023-01-05T00:47:37.537Z,0.53
2023-01-05T00:50:06.810Z,0.67
2023-01-05T00:52:34.756Z,0.50
2023-01-05T00:55:02.705Z,0.60
2023-01-05T00:57:31.998Z,0.83
2023-01-05T01:00:02.190Z,1.37
2023-01-05T01:02:30.341Z,1.17
2023-01-05T01:04:58.351Z,0.40
2023-01-05T01:07:26.398Z,0.80
2023-01-05T01:09:54.335Z,0.60
2023-01-05T01:12:22.260Z,0.60
2023-01-05T01:14:51.729Z,0.60
2023-01-05T01:17:19.703Z,0.90
2023-01-05T01:19:47.583Z,0.43
2023-01-05T01:22:15.761Z,1.13
2023-01-05T01:24:43.676Z,0.40
2023-01-05T01:27:11.576Z,0.53
2023-01-05T01:29:39.521Z,0.60
2023-01-05T01:32:08.919Z,2.87
2023-01-05T01:34:36.895Z,0.70
2023-01-05T01:37:04.838Z,1.00
2023-01-05T01:39:32.889Z,0.83
2023-01-05T01:42:00.769Z,0.73
2023-01-05T01:44:54.436Z,1.77
2023-01-05T01:47:30.254Z,0.97
2023-01-05T01:49:59.998Z,1.40
2023-01-05T01:52:30.239Z,1.20
2023-01-05T01:54:58.992Z,1.40
2023-01-05T01:57:29.339Z,2.53
2023-01-05T01:59:59.923Z,1.93
2023-01-05T02:02:29.762Z,1.20
2023-01-05T02:05:02.301Z,1.90
2023-01-05T02:07:33.892Z,1.40
2023-01-05T02:10:03.746Z,1.10
2023-01-05T02:12:44.201Z,1.77
2023-01-05T02:15:25.523Z,1.60
2023-01-05T02:18:08.727Z,1.80
2023-01-05T02:21:03.364Z,1.30
2023-01-05T02:24:09.521Z,1.57
2023-01-05T02:27:10.487Z,1.20
2023-01-05T02:30:20.770Z,0.83
2023-01-05T02:32:57.927Z,1.17
2023-01-05T02:35:36.128Z,1.20
2023-01-05T02:38:19.283Z,1.63
2023-01-05T02:40:50.604Z,1.20
2023-01-05T02:43:21.326Z,1.00
2023-01-05T02:45:49.387Z,1.17
2023-01-05T02:48:18.899Z,1.63
2023-01-05T02:50:52.592Z,1.33
2023-01-05T02:53:24.478Z,0.83
2023-01-05T02:55:57.165Z,1.00
2023-01-05T02:58:31.833Z,1.20
2023-01-05T03:01:03.432Z,0.73
2023-01-05T03:03:36.120Z,0.93
2023-01-05T03:06:09.404Z,1.03
2023-01-05T03:08:42.039Z,0.70
2023-01-05T03:11:29.990Z,1.27
2023-01-05T03:14:02.673Z,0.67
2023-01-05T03:16:35.068Z,1.60
2023-01-05T03:19:27.314Z,1.43
2023-01-05T03:22:14.852Z,1.50
2023-01-05T03:25:01.568Z,0.90
2023-01-05T03:27:48.279Z,0.90
2023-01-05T03:30:34.246Z,0.67
2023-01-05T03:33:25.943Z,0.63
2023-01-05T03:35:59.259Z,1.00
2023-01-05T03:38:31.501Z,0.73
2023-01-05T03:41:03.584Z,0.60
2023-01-05T03:43:35.152Z,0.60
2023-01-05T03:46:10.179Z,0.50
2023-01-05T03:48:38.355Z,0.60
2023-01-05T03:51:08.264Z,0.40
2023-01-05T03:53:36.183Z,0.70
2023-01-05T03:56:04.310Z,2.30
2023-01-05T03:58:32.198Z,0.70
2023-01-05T04:01:00.107Z,0.30
2023-01-05T04:03:31.628Z,0.50
2023-01-05T04:06:00.326Z,0.47
2023-01-05T04:08:29.840Z,0.40
2023-01-05T04:10:57.760Z,0.57
2023-01-05T04:13:26.371Z,0.50
2023-01-05T04:15:54.383Z,0.40
2023-01-05T04:18:22.364Z,0.30
2023-01-05T04:20:50.299Z,0.30
2023-01-05T04:23:18.242Z,0.40
2023-01-05T04:25:49.297Z,0.53
2023-01-05T04:28:17.391Z,0.30
2023-01-05T04:30:45.429Z,0.40
2023-01-05T04:33:13.839Z,0.80
2023-01-05T04:35:41.861Z,0.40
2023-01-05T04:38:09.795Z,0.50
2023-01-05T04:40:37.684Z,0.30
2023-01-05T04:43:07.422Z,0.93
2023-01-05T04:45:35.869Z,0.50
2023-01-05T04:48:03.743Z,0.77
2023-01-05T04:50:31.845Z,0.77
2023-01-05T04:53:00.026Z,0.23
2023-01-05T04:55:27.947Z,0.20
2023-01-05T04:57:55.814Z,0.30
2023-01-05T05:00:25.123Z,0.40
2023-01-05T05:02:53.164Z,0.20
2023-01-05T05:05:21.128Z,0.53
2023-01-05T05:07:49.072Z,0.30
2023-01-05T05:10:18.313Z,0.20
2023-01-05T05:12:46.388Z,0.27
2023-01-05T05:15:14.704Z,0.40
2023-01-05T05:17:44.033Z,0.20
2023-01-05T05:20:12.400Z,1.00
2023-01-05T05:22:40.528Z,0.77
2023-01-05T05:25:09.649Z,0.20
2023-01-05T05:27:37.568Z,0.10
2023-01-05T05:30:06.415Z,0.37
2023-01-05T05:32:37.093Z,1.10
2023-01-05T05:35:11.002Z,0.47
2023-01-05T05:37:39.072Z,0.43
2023-01-05T05:40:08.021Z,0.47
2023-01-05T05:42:35.926Z,0.77
2023-01-05T05:45:04.632Z,0.47
2023-01-05T05:47:32.560Z,2.37
2023-01-05T05:50:00.494Z,0.60
2023-01-05T05:52:29.996Z,0.30
2023-01-05T05:54:57.904Z,0.30
2023-01-05T05:57:25.807Z,3.53
2023-01-05T05:59:53.723Z,1.90
2023-01-05T06:02:21.654Z,1.20
2023-01-05T06:04:49.635Z,0.47
2023-01-05T06:07:17.728Z,0.57
2023-01-05T06:09:47.014Z,0.40
2023-01-05T06:12:15.057Z,0.20
2023-01-05T06:14:42.958Z,0.37
2023-01-05T06:17:10.861Z,0.30
2023-01-05T06:19:38.849Z,0.30
2023-01-05T06:22:06.755Z,0.40
2023-01-05T06:24:34.651Z,0.40
2023-01-05T06:27:03.999Z,0.67
2023-01-05T06:29:31.937Z,0.50
2023-01-05T06:31:59.861Z,0.30
2023-01-05T06:34:27.763Z,0.90
2023-01-05T06:37:02.031Z,1.13
2023-01-05T06:39:30.469Z,0.50
2023-01-05T06:41:58.412Z,0.40
2023-01-05T06:44:27.751Z,2.33
2023-01-05T06:46:55.681Z,1.53
2023-01-05T06:49:23.674Z,1.30
2023-01-05T06:51:51.545Z,0.73
2023-01-05T06:54:19.470Z,1.20
2023-01-05T06:56:47.595Z,0.90
2023-01-05T06:59:15.570Z,1.27
2023-01-05T07:01:44.969Z,0.37
2023-01-05T07:04:13.069Z,0.60
2023-01-05T07:06:41.049Z,1.30
2023-01-05T07:09:08.947Z,1.07
2023-01-05T07:11:36.913Z,1.47
2023-01-05T07:14:04.940Z,2.33
2023-01-05T07:16:32.867Z,1.50
2023-01-05T07:19:02.199Z,2.27
2023-01-05T07:21:30.132Z,2.13
2023-01-05T07:23:58.022Z,2.63
2023-01-05T07:26:25.936Z,3.60
2023-01-05T07:28:53.833Z,3.20
2023-01-05T07:31:21.774Z,4.93
2023-01-05T07:33:49.697Z,3.33
2023-01-05T07:36:19.023Z,3.50
2023-01-05T07:38:46.937Z,4.13
2023-01-05T07:41:14.823Z,3.00
2023-01-05T07:43:42.854Z,5.03
2023-01-05T07:46:10.883Z,4.37
2023-01-05T07:48:41.321Z,6.60
2023-01-05T07:51:09.450Z,4.77
2023-01-05T07:53:44.301Z,4.07
2023-01-05T07:56:13.827Z,3.03
2023-01-05T07:58:42.593Z,4.17
2023-01-05T08:01:13.045Z,6.43
2023-01-05T08:03:41.888Z,4.87
2023-01-05T08:06:11.342Z,5.60
2023-01-05T08:08:41.058Z,4.73
2023-01-05T08:11:10.262Z,4.33
2023-01-05T08:13:56.184Z,6.07
2023-01-05T08:16:24.277Z,6.20
2023-01-05T08:18:52.502Z,3.97
2023-01-05T08:21:20.477Z,7.20
2023-01-05T08:23:50.564Z,3.17
2023-01-05T08:26:19.938Z,7.93
2023-01-05T08:28:47.873Z,5.27
2023-01-05T08:31:18.489Z,3.73
2023-01-05T08:33:46.758Z,5.07
2023-01-05T08:36:17.397Z,6.33
2023-01-05T08:38:48.437Z,4.77
2023-01-05T08:41:19.676Z,4.83
2023-01-05T08:43:51.845Z,3.63
2023-01-05T08:46:20.134Z,7.60
2023-01-05T08:48:50.288Z,6.80
2023-01-05T08:51:18.738Z,4.30
2023-01-05T08:53:48.386Z,6.00
2023-01-05T08:56:16.534Z,4.80
2023-01-05T08:58:46.007Z,7.00
2023-01-05T09:01:15.590Z,7.23
2023-01-05T09:03:43.971Z,4.30
2023-01-05T09:06:13.640Z,4.33
2023-01-05T09:08:43.621Z,4.80
2023-01-05T09:11:14.100Z,6.03
2023-01-05T09:13:43.201Z,4.73
2023-01-05T09:16:14.891Z,6.67
2023-01-05T09:18:43.470Z,3.83
2023-01-05T09:21:12.038Z,7.27
2023-01-05T09:23:40.954Z,5.93
2023-01-05T09:26:11.333Z,7.60
2023-01-05T09:28:39.864Z,5.20
2023-01-05T09:31:09.241Z,4.47
2023-01-05T09:33:38.878Z,5.17
2023-01-05T09:36:07.649Z,6.07
2023-01-05T09:38:36.135Z,4.07
2023-01-05T09:41:09.387Z,5.83
2023-01-05T09:43:40.138Z,5.13
2023-01-05T09:46:13.166Z,5.83
2023-01-05T09:48:46.692Z,4.63
2023-01-05T09:51:15.165Z,4.97
2023-01-05T09:53:43.259Z,5.17
2023-01-05T09:56:58.813Z,5.93
2023-01-05T09:59:19.931Z,6.03
2023-01-05T10:01:49.484Z,5.23
2023-01-05T10:04:26.789Z,4.07
2023-01-05T10:07:02.603Z,7.97
2023-01-05T10:09:34.090Z,5.83
2023-01-05T10:12:32.608Z,5.83
2023-01-05T10:15:06.481Z,8.37
2023-01-05T10:17:41.929Z,4.93
2023-01-05T10:20:20.280Z,7.20
2023-01-05T10:23:03.562Z,4.97
2023-01-05T10:25:40.871Z,6.77
2023-01-05T10:28:22.835Z,7.33
2023-01-05T10:30:58.688Z,3.57
2023-01-05T10:33:51.649Z,4.13
2023-01-05T10:39:56.013Z,5.33
2023-01-05T10:42:41.138Z,5.33
2023-01-05T10:45:12.809Z,3.67
2023-01-05T10:47:41.997Z,4.37
2023-01-05T10:50:27.648Z,5.17
2023-01-05T10:52:58.100Z,4.57
2023-01-05T10:55:28.690Z,4.73
2023-01-05T10:57:56.615Z,5.70
2023-01-05T11:00:41.898Z,6.20
2023-01-05T11:03:16.319Z,6.17
2023-01-05T11:05:47.131Z,5.47
2023-01-05T11:08:19.624Z,3.87
2023-01-05T11:10:53.855Z,4.87
2023-01-05T11:13:31.103Z,5.30
2023-01-05T11:16:04.224Z,3.90
2023-01-05T11:18:38.163Z,6.53
2023-01-05T11:21:08.450Z,7.83
2023-01-05T11:23:39.728Z,5.13
2023-01-05T11:26:27.560Z,4.83
2023-01-05T11:29:13.482Z,5.90
2023-01-05T11:31:45.809Z,4.83
2023-01-05T11:34:27.593Z,5.57
2023-01-05T11:37:00.153Z,5.47
2023-01-05T11:39:36.875Z,5.57
2023-01-05T11:42:25.982Z,6.53
2023-01-05T11:44:56.879Z,5.83
2023-01-05T11:47:29.619Z,5.50
2023-01-05T11:50:09.075Z,5.47
2023-01-05T11:52:39.371Z,5.53
2023-01-05T11:55:33.820Z,5.77
2023-01-05T11:58:20.796Z,6.07
2023-01-05T12:01:13.965Z,9.47
2023-01-05T12:04:01.359Z,4.60
2023-01-05T12:07:10.757Z,6.53
2023-01-05T12:09:42.469Z,4.53
2023-01-05T12:12:25.957Z,6.33
2023-01-05T12:15:24.367Z,6.13
2023-01-05T12:18:02.524Z,3.07
2023-01-05T12:20:52.042Z,7.73
2023-01-05T12:23:36.239Z,5.87
2023-01-05T12:26:15.539Z,8.53
2023-01-05T12:35:36.282Z,7.00
2023-01-05T12:38:19.594Z,4.77
2023-01-05T12:41:04.848Z,5.13
2023-01-05T12:43:47.627Z,10.07
2023-01-05T12:46:30.662Z,7.17
2023-01-05T12:49:02.824Z,6.37
2023-01-05T12:51:37.238Z,4.73
2023-01-05T12:54:10.827Z,6.03
2023-01-05T12:56:42.594Z,6.73
2023-01-05T12:59:19.420Z,5.77
2023-01-05T13:01:57.542Z,4.63
2023-01-05T13:04:46.815Z,6.93
2023-01-05T13:07:21.516Z,3.87
2023-01-05T13:10:02.520Z,6.70
2023-01-05T13:12:32.627Z,9.07
2023-01-05T13:15:15.707Z,7.50
2023-01-05T13:17:48.493Z,5.03
2023-01-05T13:20:27.395Z,5.30
2023-01-05T13:23:01.601Z,6.00
2023-01-05T13:25:33.796Z,5.73
2023-01-05T13:28:01.948Z,4.67
2023-01-05T13:30:33.238Z,6.43
2023-01-05T13:33:32.103Z,4.47
2023-01-05T13:36:14.440Z,4.90
2023-01-05T13:39:19.413Z,4.90
2023-01-05T13:42:12.698Z,6.03
2023-01-05T13:45:00.340Z,5.37
2023-01-05T13:48:04.244Z,3.97
2023-01-05T13:51:11.521Z,6.77
2023-01-05T13:53:41.859Z,7.77
2023-01-05T13:56:25.492Z,5.80
2023-01-05T13:58:59.544Z,6.23
2023-01-05T14:01:37.653Z,4.90
2023-01-05T14:04:07.806Z,5.63
2023-01-05T14:06:43.925Z,3.40
2023-01-05T14:09:17.605Z,6.80
2023-01-05T14:12:18.848Z,5.17
2023-01-05T14:15:29.164Z,6.10
2023-01-05T14:17:59.042Z,7.00
2023-01-05T14:20:39.783Z,5.93
2023-01-05T14:23:40.853Z,3.37
2023-01-05T14:26:10.745Z,4.33
2023-01-05T14:28:45.122Z,4.30
2023-01-05T14:31:47.519Z,5.80
2023-01-05T14:34:18.292Z,3.37
2023-01-05T14:36:53.595Z,7.53
2023-01-05T14:39:29.657Z,6.13
2023-01-05T14:42:06.267Z,7.80
2023-01-05T14:44:44.258Z,5.10
2023-01-05T14:47:12.644Z,6.03
2023-01-05T14:49:44.187Z,5.47
2023-01-05T14:52:18.769Z,5.30
2023-01-05T14:55:29.949Z,6.77
2023-01-05T14:58:11.775Z,9.13
2023-01-05T15:00:48.504Z,5.37
2023-01-05T15:03:25.722Z,6.70
2023-01-05T15:06:01.570Z,6.60
2023-01-05T15:09:02.271Z,4.37
2023-01-05T15:11:45.324Z,7.60
2023-01-05T15:14:36.593Z,4.50
2023-01-05T15:17:29.591Z,8.60
2023-01-05T15:20:32.654Z,8.13
2023-01-05T15:23:12.507Z,16.70
2023-01-05T15:26:03.114Z,6.23
2023-01-05T15:31:37.813Z,4.20
2023-01-05T15:34:19.459Z,7.27
2023-01-05T15:36:53.190Z,7.97
2023-01-05T15:39:26.855Z,6.93
2023-01-05T15:41:57.726Z,6.83
2023-01-05T15:44:30.368Z,7.17
2023-01-05T15:46:59.948Z,7.97
2023-01-05T15:49:31.951Z,7.53
2023-01-05T15:52:00.306Z,6.87
2023-01-05T15:54:30.181Z,6.97
2023-01-05T15:56:59.056Z,5.50
2023-01-05T15:59:32.989Z,9.13
2023-01-05T16:02:02.457Z,8.50
2023-01-05T16:04:30.403Z,9.57
2023-01-05T16:07:02.242Z,10.47
2023-01-05T16:09:33.825Z,9.87
2023-01-05T16:12:08.720Z,6.93
2023-01-05T16:14:40.450Z,7.83
2023-01-05T16:17:15.304Z,10.47
2023-01-05T16:19:47.519Z,10.37
2023-01-05T16:22:21.352Z,7.53
2023-01-05T16:24:56.850Z,9.07
2023-01-05T16:27:25.679Z,8.70
2023-01-05T16:29:53.605Z,8.90
2023-01-05T16:32:33.408Z,8.03
2023-01-05T16:35:24.255Z,21.07
2023-01-05T16:38:16.131Z,12.00
2023-01-05T16:41:02.426Z,10.87
2023-01-05T16:43:34.614Z,11.00
2023-01-05T16:46:29.173Z,12.60
2023-01-05T16:49:01.528Z,11.73
2023-01-05T16:51:41.590Z,10.97
2023-01-05T16:54:23.414Z,9.80
2023-01-05T16:56:58.331Z,7.80
2023-01-05T16:59:45.713Z,10.77
2023-01-05T17:02:47.943Z,13.10
2023-01-05T17:05:19.389Z,14.67
2023-01-05T17:07:49.501Z,12.13
2023-01-05T17:10:21.929Z,9.53
2023-01-05T17:12:55.689Z,11.67
2023-01-05T17:15:27.660Z,9.37
2023-01-05T17:17:56.457Z,10.77
2023-01-05T17:20:30.026Z,11.87
2023-01-05T17:22:58.167Z,10.17
2023-01-05T17:25:32.620Z,9.63
2023-01-05T17:28:00.635Z,8.63
2023-01-05T17:30:28.803Z,11.07
2023-01-05T17:32:56.799Z,11.10
2023-01-05T17:35:26.284Z,13.57
2023-01-05T17:37:54.214Z,11.53
2023-01-05T17:40:23.290Z,10.87
2023-01-05T17:42:51.417Z,10.90
2023-01-05T17:45:21.649Z,10.83
2023-01-05T17:47:50.299Z,12.47
2023-01-05T17:50:20.247Z,11.90
2023-01-05T17:52:49.514Z,10.70
2023-01-05T17:55:17.565Z,9.33
2023-01-05T17:57:45.497Z,8.37
2023-01-05T18:00:16.926Z,6.77
2023-01-05T18:02:46.345Z,7.40
2023-01-05T18:05:14.654Z,10.67
2023-01-05T18:07:43.148Z,10.20
2023-01-05T18:10:16.902Z,11.60
2023-01-05T18:12:44.906Z,12.10
2023-01-05T18:15:14.313Z,11.57
2023-01-05T18:17:42.604Z,9.37
2023-01-05T18:20:13.767Z,9.97
2023-01-05T18:22:42.533Z,11.73
2023-01-05T18:25:13.113Z,10.90
2023-01-05T18:27:41.841Z,11.27
2023-01-05T18:30:11.459Z,9.30
2023-01-05T18:32:39.967Z,10.43
2023-01-05T18:35:10.324Z,10.90
2023-01-05T18:37:39.327Z,9.27
2023-01-05T18:40:08.472Z,9.53
2023-01-05T18:42:38.767Z,11.07
2023-01-05T18:45:19.703Z,13.00
2023-01-05T18:47:57.049Z,9.73
2023-01-05T18:50:25.071Z,8.33
2023-01-05T18:52:53.756Z,9.87
2023-01-05T18:55:21.722Z,9.30
2023-01-05T18:57:51.004Z,10.30
2023-01-05T19:00:19.298Z,11.93
2023-01-05T19:02:47.223Z,10.27
2023-01-05T19:05:15.247Z,9.40
2023-01-05T19:07:43.142Z,9.20
2023-01-05T19:10:11.104Z,11.07
2023-01-05T19:12:38.984Z,11.13
2023-01-05T19:15:09.569Z,5.47
2023-01-05T19:17:37.578Z,10.23
2023-01-05T19:20:06.297Z,11.13
2023-01-05T19:22:35.192Z,9.80
2023-01-05T19:25:05.485Z,9.70
2023-01-05T19:27:33.451Z,9.63
2023-01-05T19:30:01.337Z,14.17
2023-01-05T19:32:31.869Z,9.53
2023-01-05T19:34:59.907Z,8.23
2023-01-05T19:37:27.924Z,8.43
2023-01-05T19:39:55.845Z,9.47
2023-01-05T19:42:23.790Z,9.10
2023-01-05T19:44:51.820Z,9.77
2023-01-05T19:47:20.351Z,9.20
2023-01-05T19:49:49.933Z,9.27
2023-01-05T19:52:17.929Z,11.37
2023-01-05T19:54:45.852Z,8.57
2023-01-05T19:57:14.054Z,9.57
2023-01-05T19:59:41.974Z,8.77
2023-01-05T20:02:11.231Z,9.67
2023-01-05T20:04:39.147Z,7.97
2023-01-05T20:07:10.255Z,12.73
2023-01-05T20:09:38.553Z,8.27
2023-01-05T20:12:14.239Z,10.03
2023-01-05T20:14:42.844Z,7.80
2023-01-05T20:17:12.575Z,8.37
2023-01-05T20:19:40.728Z,10.00
2023-01-05T20:22:14.551Z,7.73
2023-01-05T20:24:43.470Z,8.17
2023-01-05T20:27:13.516Z,10.60
2023-01-05T20:29:42.012Z,8.63
2023-01-05T20:32:13.864Z,7.50
2023-01-05T20:34:44.155Z,8.47
2023-01-05T20:37:13.733Z,7.73
2023-01-05T20:39:42.913Z,4.27
2023-01-05T20:42:11.729Z,10.13
2023-01-05T20:44:47.438Z,9.73
2023-01-05T20:47:15.775Z,17.83
2023-01-05T20:49:45.231Z,5.50
2023-01-05T20:52:16.159Z,12.17
2023-01-05T20:54:44.778Z,10.20
2023-01-05T20:57:12.693Z,12.03
2023-01-05T20:59:41.348Z,13.67
2023-01-05T21:02:23.060Z,15.33
2023-01-05T21:04:52.307Z,13.27
2023-01-05T21:07:22.093Z,13.90
2023-01-05T21:09:50.756Z,12.60
2023-01-05T21:12:19.174Z,12.23
2023-01-05T21:14:47.114Z,14.23
2023-01-05T21:17:15.233Z,12.93
2023-01-05T21:19:43.163Z,16.07
2023-01-05T21:22:11.276Z,15.57
2023-01-05T21:24:41.088Z,12.67
2023-01-05T21:27:09.116Z,13.07
2023-01-05T21:29:37.334Z,12.03
2023-01-05T21:32:06.088Z,10.70
2023-01-05T21:34:34.044Z,13.00
2023-01-05T21:37:01.941Z,11.00
2023-01-05T21:39:29.891Z,11.50
2023-01-05T21:42:16.718Z,10.73
2023-01-05T21:44:44.660Z,12.33
2023-01-05T21:47:12.974Z,7.50
2023-01-05T21:49:40.931Z,11.60
2023-01-05T21:52:28.567Z,9.17
2023-01-05T21:55:28.411Z,7.93
2023-01-05T21:57:57.846Z,10.33
2023-01-05T22:00:25.910Z,15.77
2023-01-05T22:02:53.857Z,7.17
2023-01-05T22:05:21.944Z,6.83
2023-01-05T22:07:49.979Z,10.17
2023-01-05T22:10:18.177Z,8.97
2023-01-05T22:12:46.068Z,9.90
2023-01-05T22:15:15.418Z,14.30
2023-01-05T22:17:43.908Z,13.50
2023-01-05T22:20:13.843Z,14.87
2023-01-05T22:22:41.742Z,11.93
2023-01-05T22:25:10.597Z,11.53
2023-01-05T22:27:38.577Z,10.77
2023-01-05T22:30:07.772Z,13.07
2023-01-05T22:32:37.500Z,11.17
2023-01-05T22:35:06.517Z,12.20
2023-01-05T22:37:34.524Z,14.20
2023-01-05T22:40:02.675Z,11.30
2023-01-05T22:42:30.683Z,11.93
2023-01-05T22:44:58.587Z,10.50
2023-01-05T22:47:26.507Z,9.23
2023-01-05T22:49:55.826Z,13.60
2023-01-05T22:52:23.926Z,14.30
2023-01-05T22:54:51.846Z,14.77
2023-01-05T22:57:19.931Z,16.33
2023-01-05T22:59:47.878Z,15.50
2023-01-05T23:02:15.893Z,14.50
2023-01-05T23:04:43.870Z,12.50
2023-01-05T23:07:13.481Z,12.63
2023-01-05T23:09:41.753Z,13.33
2023-01-05T23:12:11.895Z,12.47
2023-01-05T23:14:39.976Z,12.27
2023-01-05T23:17:12.311Z,9.13
2023-01-05T23:19:40.504Z,11.53
2023-01-05T23:22:10.791Z,9.27
2023-01-05T23:24:41.152Z,12.73
2023-01-05T23:27:09.160Z,9.87
2023-01-05T23:29:37.589Z,11.37
2023-01-05T23:32:06.487Z,9.93
2023-01-05T23:34:34.621Z,10.00
2023-01-05T23:37:02.511Z,9.27
2023-01-05T23:39:30.392Z,13.03
2023-01-05T23:41:59.706Z,11.37
2023-01-05T23:44:27.614Z,11.37
2023-01-05T23:46:55.551Z,9.17
2023-01-05T23:49:23.475Z,8.23
2023-01-05T23:51:51.443Z,10.90
2023-01-05T23:54:19.587Z,8.77
2023-01-05T23:56:47.560Z,11.67
2023-01-05T23:59:16.846Z,9.60
